EPLL/LCJ METAR and TAF weather

Enter ICAO airport designator
Station Type Date Time Source
EPLL METAR 2020/09/30 16:30 UTC NOAA

EPLL 301630Z 32009KT 300V020 9999 -RA BKN023 15/12 Q1010


Station Type Date Time Source
EPLL Decoded METAR 2020/09/30 16:30 UTC NOAA

Station name not available
Sep 30, 2020 - 12:30 PM EDT / 2020.09.30 1630 UTC
Wind: from the NW (320 degrees) at 10 MPH (9 KT) (direction variable):0
Visibility: greater than 7 mile(s):0
Sky conditions: mostly cloudy
Weather: light rain
Temperature: 59 F (15 C)
Dew Point: 53 F (12 C)
Relative Humidity: 82%
Pressure (altimeter): 29.83 in. Hg (1010 hPa)
ob: EPLL 301630Z 32009KT 300V020 9999 -RA BKN023 15/12 Q1010
cycle: 16

Station Type Date Time Source
EPLL TAF 2020/09/30 12:00 UTC NOAA

TAF EPLL 301130Z 3012/0112 01010KT 9999 BKN020
BECMG 3015/3017 -RA BKN012
TEMPO 3016/0103 3000 RA BR SCT004 BKN007
TEMPO 0103/0109 BKN005

Example: see airport list